KLM261Y EKBI-EHAM
Flight info
| Callsign | KLM261Y |
|---|---|
| Flight time | 0h 56m |
| Altitude | 34000 |
| Route | MIKRO DCT IPSUB P174 KUBAT T200 BLUFA |
| Aircraft | SU95/M-SDE3GILORVW/S |
Departure
| Time | 2026-04-28 17:13 |
|---|---|
| Airport | Billund Airport (EKBI) |
Arrival
| Time | 2026-04-28 18:09 |
|---|---|
| Airport | Amsterdam Airport Schiphol (EHAM) |
| Time | Latitude | Longitude | Altitude | Speed | Heading |
|---|---|---|---|---|---|
| 2026-04-28 17:04 | 55.74531 | 9.14749 | 213 ft | 0 kts | 357° |
| 2026-04-28 17:06 | 55.74485 | 9.14755 | 216 ft | 4 kts | 353° |
| 2026-04-28 17:07 | 55.74460 | 9.14768 | 217 ft | 4 kts | 326° |
| 2026-04-28 17:07 | 55.74449 | 9.14802 | 217 ft | 2 kts | 267° |
| 2026-04-28 17:07 | 55.74450 | 9.14811 | 217 ft | 0 kts | 267° |
| 2026-04-28 17:09 | 55.74449 | 9.14771 | 218 ft | 14 kts | 267° |
| 2026-04-28 17:09 | 55.74442 | 9.14556 | 213 ft | 18 kts | 266° |
| 2026-04-28 17:09 | 55.74435 | 9.14351 | 213 ft | 13 kts | 250° |
| 2026-04-28 17:09 | 55.74356 | 9.14288 | 213 ft | 14 kts | 181° |
| 2026-04-28 17:10 | 55.74264 | 9.14265 | 213 ft | 13 kts | 231° |
| 2026-04-28 17:10 | 55.74247 | 9.14102 | 213 ft | 14 kts | 267° |
| 2026-04-28 17:10 | 55.74244 | 9.13926 | 213 ft | 15 kts | 268° |
| 2026-04-28 17:10 | 55.74237 | 9.13733 | 213 ft | 18 kts | 265° |
| 2026-04-28 17:11 | 55.74228 | 9.13504 | 213 ft | 19 kts | 259° |
| 2026-04-28 17:11 | 55.74165 | 9.13303 | 213 ft | 19 kts | 219° |
| 2026-04-28 17:11 | 55.74041 | 9.13252 | 213 ft | 16 kts | 180° |
| 2026-04-28 17:11 | 55.73987 | 9.13291 | 213 ft | 9 kts | 126° |
| 2026-04-28 17:12 | 55.73984 | 9.13565 | 213 ft | 53 kts | 87° |
| 2026-04-28 17:12 | 55.74017 | 9.14617 | 213 ft | 115 kts | 87° |
| 2026-04-28 17:12 | 55.74077 | 9.16367 | 230 ft | 165 kts | 87° |
| 2026-04-28 17:12 | 55.74149 | 9.18371 | 818 ft | 158 kts | 87° |
| 2026-04-28 17:13 | 55.74221 | 9.20293 | 1415 ft | 159 kts | 88° |
| 2026-04-28 17:13 | 55.74273 | 9.22325 | 1851 ft | 172 kts | 90° |
| 2026-04-28 17:13 | 55.74305 | 9.24569 | 2214 ft | 192 kts | 90° |
| 2026-04-28 17:13 | 55.74357 | 9.27088 | 2618 ft | 218 kts | 89° |
| 2026-04-28 17:14 | 55.74467 | 9.29957 | 3095 ft | 247 kts | 87° |
| 2026-04-28 17:14 | 55.74615 | 9.33132 | 3716 ft | 266 kts | 86° |
| 2026-04-28 17:14 | 55.74740 | 9.36431 | 4753 ft | 269 kts | 92° |
| 2026-04-28 17:14 | 55.74298 | 9.39636 | 5763 ft | 272 kts | 119° |
| 2026-04-28 17:15 | 55.73088 | 9.42144 | 6721 ft | 275 kts | 146° |
| 2026-04-28 17:15 | 55.71328 | 9.43448 | 7688 ft | 278 kts | 172° |
| 2026-04-28 17:15 | 55.69403 | 9.43210 | 8643 ft | 281 kts | 199° |
| 2026-04-28 17:15 | 55.67720 | 9.41463 | 9578 ft | 285 kts | 225° |
| 2026-04-28 17:16 | 55.66610 | 9.38543 | 10436 ft | 293 kts | 247° |
| 2026-04-28 17:16 | 55.65976 | 9.34960 | 10859 ft | 317 kts | 256° |
| 2026-04-28 17:16 | 55.65443 | 9.31071 | 11495 ft | 329 kts | 256° |
| 2026-04-28 17:16 | 55.64836 | 9.27135 | 12406 ft | 333 kts | 253° |
| 2026-04-28 17:17 | 55.64133 | 9.23194 | 13283 ft | 338 kts | 251° |
| 2026-04-28 17:17 | 55.63361 | 9.19247 | 14132 ft | 342 kts | 250° |
| 2026-04-28 17:17 | 55.62543 | 9.15254 | 14972 ft | 347 kts | 250° |
| 2026-04-28 17:17 | 55.61702 | 9.11226 | 15783 ft | 351 kts | 250° |
| 2026-04-28 17:18 | 55.60847 | 9.07149 | 16570 ft | 355 kts | 250° |
| 2026-04-28 17:18 | 55.59982 | 9.03026 | 17335 ft | 360 kts | 250° |
| 2026-04-28 17:18 | 55.59118 | 8.98909 | 18069 ft | 364 kts | 250° |
| 2026-04-28 17:18 | 55.58232 | 8.94691 | 18795 ft | 368 kts | 249° |
| 2026-04-28 17:19 | 55.57334 | 8.90424 | 19502 ft | 372 kts | 249° |
| 2026-04-28 17:19 | 55.56426 | 8.86118 | 20189 ft | 376 kts | 249° |
| 2026-04-28 17:19 | 55.55506 | 8.81766 | 20861 ft | 380 kts | 249° |
| 2026-04-28 17:19 | 55.54575 | 8.77368 | 21517 ft | 384 kts | 249° |
| 2026-04-28 17:20 | 55.53632 | 8.72926 | 22155 ft | 388 kts | 249° |
| 2026-04-28 17:20 | 55.52990 | 8.69905 | 22578 ft | 391 kts | 249° |
| 2026-04-28 17:20 | 55.51715 | 8.63921 | 23390 ft | 396 kts | 249° |
| 2026-04-28 17:20 | 55.50740 | 8.59358 | 23982 ft | 399 kts | 249° |
| 2026-04-28 17:21 | 55.49755 | 8.54759 | 24558 ft | 403 kts | 249° |
| 2026-04-28 17:21 | 55.48757 | 8.50109 | 25128 ft | 407 kts | 249° |
| 2026-04-28 17:21 | 55.47750 | 8.45425 | 25661 ft | 410 kts | 249° |
| 2026-04-28 17:22 | 55.45705 | 8.35948 | 26687 ft | 417 kts | 249° |
| 2026-04-28 17:22 | 55.44667 | 8.31156 | 27180 ft | 420 kts | 249° |
| 2026-04-28 17:22 | 55.43615 | 8.26336 | 27659 ft | 423 kts | 247° |
| 2026-04-28 17:23 | 55.40183 | 8.17936 | 28496 ft | 429 kts | 220° |
| 2026-04-28 17:23 | 55.37704 | 8.15003 | 28895 ft | 432 kts | 206° |
| 2026-04-28 17:23 | 55.34892 | 8.13118 | 29282 ft | 435 kts | 197° |
| 2026-04-28 17:23 | 55.32008 | 8.11632 | 29670 ft | 438 kts | 196° |
| 2026-04-28 17:24 | 55.29081 | 8.10152 | 30065 ft | 440 kts | 196° |
| 2026-04-28 17:24 | 55.26126 | 8.08654 | 30456 ft | 443 kts | 196° |
| 2026-04-28 17:24 | 55.23156 | 8.07140 | 30840 ft | 446 kts | 196° |
| 2026-04-28 17:24 | 55.20166 | 8.05609 | 31218 ft | 448 kts | 197° |
| 2026-04-28 17:25 | 55.17162 | 8.04068 | 31583 ft | 451 kts | 197° |
| 2026-04-28 17:25 | 55.11106 | 8.00966 | 32270 ft | 456 kts | 197° |
| 2026-04-28 17:25 | 55.08051 | 7.99405 | 32596 ft | 458 kts | 196° |
| 2026-04-28 17:26 | 55.04987 | 7.97842 | 32968 ft | 459 kts | 196° |
| 2026-04-28 17:26 | 55.01925 | 7.96282 | 33387 ft | 458 kts | 196° |
| 2026-04-28 17:26 | 54.98834 | 7.94887 | 33794 ft | 458 kts | 192° |
| 2026-04-28 17:26 | 54.95709 | 7.93832 | 33971 ft | 456 kts | 191° |
| 2026-04-28 17:27 | 54.92597 | 7.92802 | 34002 ft | 455 kts | 191° |
| 2026-04-28 17:27 | 54.86375 | 7.90742 | 34000 ft | 455 kts | 191° |
| 2026-04-28 17:28 | 54.80159 | 7.88678 | 34000 ft | 455 kts | 191° |
| 2026-04-28 17:28 | 54.70870 | 7.85599 | 34000 ft | 455 kts | 191° |
| 2026-04-28 17:29 | 54.64649 | 7.83543 | 34000 ft | 455 kts | 191° |
| 2026-04-28 17:30 | 54.56370 | 7.80811 | 34000 ft | 455 kts | 191° |
| 2026-04-28 17:30 | 54.47040 | 7.77748 | 34000 ft | 455 kts | 191° |
| 2026-04-28 17:31 | 54.37710 | 7.74699 | 34000 ft | 455 kts | 191° |
| 2026-04-28 17:32 | 54.28373 | 7.71662 | 34001 ft | 455 kts | 191° |
| 2026-04-28 17:32 | 54.22160 | 7.69648 | 34001 ft | 455 kts | 191° |
| 2026-04-28 17:33 | 54.15930 | 7.67636 | 34001 ft | 455 kts | 191° |
| 2026-04-28 17:33 | 54.10756 | 7.65969 | 34001 ft | 455 kts | 191° |
| 2026-04-28 17:34 | 54.06597 | 7.64560 | 33888 ft | 455 kts | 195° |
| 2026-04-28 17:34 | 54.03650 | 7.62652 | 33640 ft | 454 kts | 208° |
| 2026-04-28 17:34 | 54.00952 | 7.59843 | 33385 ft | 455 kts | 213° |
| 2026-04-28 17:34 | 53.98309 | 7.56882 | 33146 ft | 455 kts | 213° |
| 2026-04-28 17:35 | 53.95670 | 7.53919 | 32898 ft | 455 kts | 213° |
| 2026-04-28 17:35 | 53.93050 | 7.50988 | 32650 ft | 456 kts | 213° |
| 2026-04-28 17:35 | 53.90395 | 7.48033 | 32401 ft | 456 kts | 213° |
| 2026-04-28 17:35 | 53.87738 | 7.45087 | 32153 ft | 456 kts | 213° |
| 2026-04-28 17:36 | 53.85089 | 7.42160 | 31901 ft | 453 kts | 213° |
| 2026-04-28 17:36 | 53.82454 | 7.39253 | 31648 ft | 451 kts | 213° |
| 2026-04-28 17:36 | 53.79829 | 7.36363 | 31401 ft | 450 kts | 213° |
| 2026-04-28 17:36 | 53.77206 | 7.33479 | 31148 ft | 448 kts | 213° |
| 2026-04-28 17:37 | 53.74597 | 7.30615 | 30901 ft | 446 kts | 213° |
| 2026-04-28 17:37 | 53.72003 | 7.27771 | 30651 ft | 444 kts | 213° |
| 2026-04-28 17:37 | 53.69407 | 7.24929 | 30401 ft | 443 kts | 213° |
| 2026-04-28 17:37 | 53.66832 | 7.22114 | 30149 ft | 441 kts | 213° |
| 2026-04-28 17:38 | 53.64264 | 7.19311 | 29901 ft | 439 kts | 213° |
| 2026-04-28 17:38 | 53.61696 | 7.16513 | 29650 ft | 437 kts | 213° |
| 2026-04-28 17:38 | 53.59147 | 7.13739 | 29401 ft | 436 kts | 213° |
| 2026-04-28 17:38 | 53.56603 | 7.10974 | 29150 ft | 434 kts | 213° |
| 2026-04-28 17:39 | 53.54187 | 7.08352 | 28912 ft | 432 kts | 213° |
| 2026-04-28 17:39 | 53.51831 | 7.05799 | 28677 ft | 431 kts | 213° |
| 2026-04-28 17:39 | 53.46848 | 7.00411 | 28182 ft | 427 kts | 213° |
| 2026-04-28 17:40 | 53.44350 | 6.97715 | 27936 ft | 426 kts | 213° |
| 2026-04-28 17:40 | 53.41863 | 6.95035 | 27682 ft | 424 kts | 213° |
| 2026-04-28 17:40 | 53.39388 | 6.92371 | 27432 ft | 422 kts | 213° |
| 2026-04-28 17:40 | 53.36916 | 6.89715 | 27181 ft | 421 kts | 213° |
| 2026-04-28 17:41 | 53.34465 | 6.87086 | 26931 ft | 419 kts | 213° |
| 2026-04-28 17:41 | 53.32012 | 6.84456 | 26673 ft | 417 kts | 213° |
| 2026-04-28 17:41 | 53.29568 | 6.81842 | 26431 ft | 416 kts | 213° |
| 2026-04-28 17:41 | 53.27139 | 6.79246 | 26187 ft | 414 kts | 213° |
| 2026-04-28 17:42 | 53.24718 | 6.76662 | 26018 ft | 412 kts | 212° |
| 2026-04-28 17:42 | 53.23119 | 6.74958 | 25999 ft | 412 kts | 212° |
| 2026-04-28 17:42 | 53.19882 | 6.71512 | 26000 ft | 413 kts | 212° |
| 2026-04-28 17:42 | 53.17458 | 6.68935 | 26000 ft | 413 kts | 212° |
| 2026-04-28 17:43 | 53.15032 | 6.66360 | 26001 ft | 413 kts | 212° |
| 2026-04-28 17:43 | 53.12609 | 6.63792 | 26000 ft | 413 kts | 212° |
| 2026-04-28 17:43 | 53.10219 | 6.61262 | 26000 ft | 413 kts | 212° |
| 2026-04-28 17:43 | 53.07793 | 6.58698 | 26000 ft | 413 kts | 212° |
| 2026-04-28 17:44 | 53.05367 | 6.56137 | 26000 ft | 413 kts | 212° |
| 2026-04-28 17:44 | 53.02941 | 6.53580 | 26000 ft | 413 kts | 212° |
| 2026-04-28 17:44 | 53.00579 | 6.50872 | 25984 ft | 412 kts | 221° |
| 2026-04-28 17:44 | 52.98605 | 6.47464 | 25635 ft | 411 kts | 229° |
| 2026-04-28 17:45 | 52.96734 | 6.43850 | 24893 ft | 415 kts | 230° |
| 2026-04-28 17:45 | 52.94851 | 6.40165 | 23984 ft | 422 kts | 230° |
| 2026-04-28 17:45 | 52.92949 | 6.36453 | 23251 ft | 422 kts | 230° |
| 2026-04-28 17:45 | 52.91053 | 6.32771 | 22662 ft | 418 kts | 229° |
| 2026-04-28 17:46 | 52.89172 | 6.29135 | 22067 ft | 414 kts | 229° |
| 2026-04-28 17:46 | 52.87306 | 6.25540 | 21461 ft | 410 kts | 229° |
| 2026-04-28 17:46 | 52.85454 | 6.21980 | 20853 ft | 406 kts | 229° |
| 2026-04-28 17:46 | 52.83617 | 6.18457 | 20248 ft | 402 kts | 229° |
| 2026-04-28 17:47 | 52.81798 | 6.14971 | 19637 ft | 399 kts | 229° |
| 2026-04-28 17:47 | 52.79991 | 6.11514 | 19026 ft | 395 kts | 229° |
| 2026-04-28 17:47 | 52.78201 | 6.08093 | 18422 ft | 391 kts | 229° |
| 2026-04-28 17:47 | 52.77027 | 6.05852 | 18013 ft | 389 kts | 229° |
| 2026-04-28 17:48 | 52.74670 | 6.01360 | 17218 ft | 384 kts | 229° |
| 2026-04-28 17:48 | 52.72929 | 5.98047 | 16622 ft | 381 kts | 229° |
| 2026-04-28 17:48 | 52.71198 | 5.94758 | 16030 ft | 378 kts | 229° |
| 2026-04-28 17:48 | 52.69482 | 5.91500 | 15437 ft | 374 kts | 229° |
| 2026-04-28 17:49 | 52.67782 | 5.88277 | 14850 ft | 371 kts | 229° |
| 2026-04-28 17:49 | 52.66095 | 5.85084 | 14265 ft | 368 kts | 229° |
| 2026-04-28 17:49 | 52.64422 | 5.81921 | 13684 ft | 365 kts | 229° |
| 2026-04-28 17:49 | 52.62764 | 5.78789 | 13106 ft | 361 kts | 229° |
| 2026-04-28 17:50 | 52.61118 | 5.75685 | 12537 ft | 358 kts | 229° |
| 2026-04-28 17:50 | 52.59482 | 5.72604 | 11963 ft | 355 kts | 229° |
| 2026-04-28 17:50 | 52.57860 | 5.69552 | 11400 ft | 352 kts | 229° |
| 2026-04-28 17:50 | 52.56276 | 5.66575 | 11182 ft | 339 kts | 229° |
| 2026-04-28 17:51 | 52.54776 | 5.63754 | 11043 ft | 325 kts | 230° |
| 2026-04-28 17:51 | 52.53500 | 5.60719 | 10833 ft | 323 kts | 237° |
| 2026-04-28 17:51 | 52.52280 | 5.57566 | 10554 ft | 324 kts | 237° |
| 2026-04-28 17:51 | 52.51076 | 5.54435 | 10081 ft | 324 kts | 238° |
| 2026-04-28 17:52 | 52.49910 | 5.51404 | 9940 ft | 311 kts | 237° |
| 2026-04-28 17:52 | 52.48779 | 5.48472 | 9822 ft | 298 kts | 237° |
| 2026-04-28 17:52 | 52.46605 | 5.42854 | 9142 ft | 290 kts | 237° |
| 2026-04-28 17:53 | 52.45520 | 5.40058 | 8726 ft | 290 kts | 237° |
| 2026-04-28 17:53 | 52.44456 | 5.37319 | 8596 ft | 280 kts | 237° |
| 2026-04-28 17:53 | 52.43517 | 5.34903 | 8550 ft | 284 kts | 237° |
| 2026-04-28 17:53 | 52.42484 | 5.32252 | 8487 ft | 284 kts | 237° |
| 2026-04-28 17:54 | 52.41428 | 5.29541 | 8403 ft | 282 kts | 237° |
| 2026-04-28 17:54 | 52.40373 | 5.26837 | 8362 ft | 282 kts | 237° |
| 2026-04-28 17:54 | 52.39312 | 5.24119 | 8151 ft | 283 kts | 237° |
| 2026-04-28 17:54 | 52.38258 | 5.21423 | 7900 ft | 279 kts | 237° |
| 2026-04-28 17:55 | 52.37210 | 5.18746 | 7653 ft | 279 kts | 237° |
| 2026-04-28 17:55 | 52.36219 | 5.16216 | 7407 ft | 278 kts | 237° |
| 2026-04-28 17:55 | 52.35174 | 5.13552 | 7152 ft | 277 kts | 237° |
| 2026-04-28 17:55 | 52.34146 | 5.10905 | 7001 ft | 274 kts | 237° |
| 2026-04-28 17:56 | 52.33121 | 5.08258 | 6996 ft | 276 kts | 237° |
| 2026-04-28 17:56 | 52.32090 | 5.05599 | 6999 ft | 277 kts | 237° |
| 2026-04-28 17:56 | 52.31061 | 5.02944 | 7004 ft | 277 kts | 237° |
| 2026-04-28 17:56 | 52.30030 | 5.00287 | 7000 ft | 277 kts | 237° |
| 2026-04-28 17:57 | 52.28999 | 4.97631 | 7003 ft | 276 kts | 237° |
| 2026-04-28 17:57 | 52.27981 | 4.95009 | 7004 ft | 277 kts | 237° |
| 2026-04-28 17:57 | 52.26951 | 4.92360 | 7004 ft | 276 kts | 237° |
| 2026-04-28 17:57 | 52.25920 | 4.89707 | 7002 ft | 277 kts | 237° |
| 2026-04-28 17:58 | 52.24889 | 4.87057 | 7000 ft | 276 kts | 237° |
| 2026-04-28 17:58 | 52.23858 | 4.84408 | 6999 ft | 276 kts | 237° |
| 2026-04-28 17:58 | 52.22824 | 4.81752 | 7001 ft | 277 kts | 237° |
| 2026-04-28 17:58 | 52.21792 | 4.79103 | 6996 ft | 277 kts | 237° |
| 2026-04-28 17:59 | 52.20756 | 4.76446 | 6787 ft | 278 kts | 237° |
| 2026-04-28 17:59 | 52.19723 | 4.73799 | 6383 ft | 275 kts | 239° |
| 2026-04-28 17:59 | 52.18688 | 4.71202 | 5980 ft | 271 kts | 238° |
| 2026-04-28 17:59 | 52.17667 | 4.68644 | 5580 ft | 267 kts | 238° |
| 2026-04-28 18:00 | 52.16660 | 4.66137 | 5229 ft | 261 kts | 237° |
| 2026-04-28 18:00 | 52.15679 | 4.63670 | 4885 ft | 259 kts | 238° |
| 2026-04-28 18:00 | 52.14706 | 4.61217 | 4529 ft | 257 kts | 237° |
| 2026-04-28 18:00 | 52.13911 | 4.58651 | 4181 ft | 254 kts | 257° |
| 2026-04-28 18:01 | 52.13922 | 4.55820 | 3832 ft | 252 kts | 285° |
| 2026-04-28 18:01 | 52.14774 | 4.53334 | 3329 ft | 258 kts | 313° |
| 2026-04-28 18:01 | 52.16256 | 4.51667 | 2669 ft | 268 kts | 332° |
| 2026-04-28 18:01 | 52.17881 | 4.50319 | 2234 ft | 252 kts | 334° |
| 2026-04-28 18:02 | 52.19517 | 4.49772 | 1892 ft | 233 kts | 7° |
| 2026-04-28 18:02 | 52.20875 | 4.50864 | 1756 ft | 217 kts | 51° |
| 2026-04-28 18:02 | 52.21238 | 4.52924 | 2493 ft | 174 kts | 107° |
| 2026-04-28 18:02 | 52.20632 | 4.54647 | 3068 ft | 191 kts | 132° |
| 2026-04-28 18:03 | 52.19862 | 4.56510 | 3022 ft | 203 kts | 114° |
| 2026-04-28 18:03 | 52.19471 | 4.58726 | 2782 ft | 203 kts | 98° |
| 2026-04-28 18:03 | 52.19040 | 4.60874 | 2611 ft | 200 kts | 128° |
| 2026-04-28 18:03 | 52.17929 | 4.62188 | 2582 ft | 201 kts | 165° |
| 2026-04-28 18:04 | 52.16547 | 4.62170 | 2466 ft | 199 kts | 201° |
| 2026-04-28 18:04 | 52.15484 | 4.60815 | 2344 ft | 198 kts | 239° |
| 2026-04-28 18:04 | 52.15168 | 4.58674 | 2219 ft | 198 kts | 277° |
| 2026-04-28 18:04 | 52.15740 | 4.56668 | 2095 ft | 200 kts | 316° |
| 2026-04-28 18:05 | 52.16958 | 4.55630 | 1980 ft | 201 kts | 346° |
| 2026-04-28 18:05 | 52.17829 | 4.55139 | 1886 ft | 200 kts | 334° |
| 2026-04-28 18:05 | 52.19551 | 4.54079 | 1754 ft | 199 kts | 359° |
| 2026-04-28 18:05 | 52.20888 | 4.54623 | 1772 ft | 199 kts | 30° |
| 2026-04-28 18:06 | 52.21883 | 4.55961 | 1742 ft | 172 kts | 49° |
| 2026-04-28 18:06 | 52.22574 | 4.57401 | 1776 ft | 157 kts | 55° |
| 2026-04-28 18:06 | 52.23175 | 4.58866 | 1750 ft | 154 kts | 58° |
| 2026-04-28 18:06 | 52.23757 | 4.60339 | 1752 ft | 154 kts | 58° |
| 2026-04-28 18:07 | 52.24329 | 4.61821 | 1701 ft | 156 kts | 58° |
| 2026-04-28 18:07 | 52.24902 | 4.63308 | 1476 ft | 152 kts | 58° |
| 2026-04-28 18:07 | 52.25466 | 4.64777 | 1280 ft | 153 kts | 59° |
| 2026-04-28 18:07 | 52.26033 | 4.66255 | 1034 ft | 153 kts | 59° |
| 2026-04-28 18:08 | 52.26602 | 4.67704 | 787 ft | 152 kts | 58° |
| 2026-04-28 18:08 | 52.27155 | 4.69169 | 552 ft | 151 kts | 60° |
| 2026-04-28 18:08 | 52.27707 | 4.70620 | 375 ft | 152 kts | 57° |
| 2026-04-28 18:08 | 52.28278 | 4.72052 | 217 ft | 149 kts | 59° |
| 2026-04-28 18:09 | 52.28833 | 4.73505 | 50 ft | 150 kts | 59° |
| 2026-04-28 18:09 | 52.29363 | 4.74896 | -4 ft | 127 kts | 58° |
| 2026-04-28 18:09 | 52.29721 | 4.75828 | -5 ft | 69 kts | 58° |
| 2026-04-28 18:09 | 52.29874 | 4.76236 | -6 ft | 28 kts | 56° |
| 2026-04-28 18:10 | 52.29987 | 4.76503 | -5 ft | 28 kts | 45° |
| 2026-04-28 18:10 | 52.30124 | 4.76625 | -4 ft | 0 kts | 27° |
| 2026-04-28 18:10 | 52.30129 | 4.76629 | -4 ft | 1 kts | 27° |
| 2026-04-28 18:10 | 52.30143 | 4.76641 | -4 ft | 3 kts | 26° |
| 2026-04-28 18:11 | 52.30191 | 4.76679 | -4 ft | 15 kts | 27° |
| 2026-04-28 18:11 | 52.30237 | 4.76719 | -4 ft | 8 kts | 26° |
| 2026-04-28 18:11 | 52.30290 | 4.76775 | -4 ft | 10 kts | 44° |
| 2026-04-28 18:11 | 52.30334 | 4.76874 | -4 ft | 12 kts | 58° |
| 2026-04-28 18:12 | 52.30378 | 4.76995 | -4 ft | 13 kts | 59° |
| 2026-04-28 18:12 | 52.30423 | 4.77108 | -4 ft | 7 kts | 54° |
| 2026-04-28 18:12 | 52.30467 | 4.77149 | -4 ft | 8 kts | 358° |
| 2026-04-28 18:12 | 52.30523 | 4.77108 | -4 ft | 10 kts | 327° |
| 2026-04-28 18:13 | 52.30586 | 4.77050 | -4 ft | 11 kts | 330° |
| 2026-04-28 18:13 | 52.30628 | 4.77011 | -4 ft | 4 kts | 353° |
| 2026-04-28 18:13 | 52.30665 | 4.77022 | -4 ft | 6 kts | 8° |
| 2026-04-28 18:13 | 52.30713 | 4.77026 | -4 ft | 5 kts | 2° |
| 2026-04-28 18:14 | 52.30716 | 4.77026 | -4 ft | 0 kts | 2° |